sensor_id;sensor_type;location;lat;lon;timestamp;P1;durP1;ratioP1;P2;durP2;ratioP2
75516;SDS011;64097;52.548;13.406;2023-11-21T06:03:32;7.53;;;6.72;;
75516;SDS011;64097;52.548;13.406;2023-11-21T06:05:58;7.80;;;6.97;;
75516;SDS011;64097;52.548;13.406;2023-11-21T06:08:24;7.80;;;7.00;;
75516;SDS011;64097;52.548;13.406;2023-11-21T06:10:49;8.02;;;6.75;;
75516;SDS011;64097;52.548;13.406;2023-11-21T06:13:15;7.05;;;6.28;;
75516;SDS011;64097;52.548;13.406;2023-11-21T06:15:41;6.55;;;5.55;;
75516;SDS011;64097;52.548;13.406;2023-11-21T06:18:07;6.85;;;5.95;;
75516;SDS011;64097;52.548;13.406;2023-11-21T06:20:35;6.50;;;5.90;;
75516;SDS011;64097;52.548;13.406;2023-11-21T06:23:02;6.97;;;6.13;;
75516;SDS011;64097;52.548;13.406;2023-11-21T06:25:29;6.53;;;5.70;;
75516;SDS011;64097;52.548;13.406;2023-11-21T06:27:58;6.60;;;5.90;;
75516;SDS011;64097;52.548;13.406;2023-11-21T06:30:23;6.25;;;5.45;;
75516;SDS011;64097;52.548;13.406;2023-11-21T06:32:49;6.55;;;5.85;;
75516;SDS011;64097;52.548;13.406;2023-11-21T06:35:16;6.00;;;5.40;;
75516;SDS011;64097;52.548;13.406;2023-11-21T06:37:41;5.28;;;4.78;;
75516;SDS011;64097;52.548;13.406;2023-11-21T06:40:12;5.93;;;5.15;;
75516;SDS011;64097;52.548;13.406;2023-11-21T06:42:40;5.85;;;5.25;;
75516;SDS011;64097;52.548;13.406;2023-11-21T06:45:06;5.30;;;4.80;;
75516;SDS011;64097;52.548;13.406;2023-11-21T06:47:33;5.70;;;5.20;;
75516;SDS011;64097;52.548;13.406;2023-11-21T06:49:59;6.32;;;5.72;;
75516;SDS011;64097;52.548;13.406;2023-11-21T06:52:26;5.95;;;5.32;;
75516;SDS011;64097;52.548;13.406;2023-11-21T06:54:52;6.25;;;5.53;;
75516;SDS011;64097;52.548;13.406;2023-11-21T06:57:18;5.63;;;4.93;;
75516;SDS011;64097;52.548;13.406;2023-11-21T06:59:44;5.63;;;4.97;;
75516;SDS011;64097;52.548;13.406;2023-11-21T07:02:09;5.63;;;5.13;;
75516;SDS011;64097;52.548;13.406;2023-11-21T07:04:35;6.40;;;5.80;;
75516;SDS011;64097;52.548;13.406;2023-11-21T07:07:04;5.57;;;5.07;;
75516;SDS011;64097;52.548;13.406;2023-11-21T07:09:32;5.50;;;5.00;;
75516;SDS011;64097;52.548;13.406;2023-11-21T07:11:58;5.55;;;4.72;;
75516;SDS011;64097;52.548;13.406;2023-11-21T07:14:25;5.40;;;4.88;;
75516;SDS011;64097;52.548;13.406;2023-11-21T07:16:50;5.50;;;5.00;;
75516;SDS011;64097;52.548;13.406;2023-11-21T07:19:17;5.97;;;5.38;;
75516;SDS011;64097;52.548;13.406;2023-11-21T07:21:43;5.72;;;5.13;;
75516;SDS011;64097;52.548;13.406;2023-11-21T07:24:09;6.00;;;5.40;;
75516;SDS011;64097;52.548;13.406;2023-11-21T07:26:36;5.43;;;4.72;;
75516;SDS011;64097;52.548;13.406;2023-11-21T07:29:02;5.90;;;5.30;;
75516;SDS011;64097;52.548;13.406;2023-11-21T07:31:28;5.18;;;4.70;;
75516;SDS011;64097;52.548;13.406;2023-11-21T07:33:55;5.40;;;4.88;;
75516;SDS011;64097;52.548;13.406;2023-11-21T07:36:24;5.20;;;4.70;;
75516;SDS011;64097;52.548;13.406;2023-11-21T07:38:50;4.82;;;4.30;;
75516;SDS011;64097;52.548;13.406;2023-11-21T07:41:17;6.03;;;5.43;;
75516;SDS011;64097;52.548;13.406;2023-11-21T07:43:44;4.85;;;4.40;;
75516;SDS011;64097;52.548;13.406;2023-11-21T07:46:10;6.00;;;5.43;;
75516;SDS011;64097;52.548;13.406;2023-11-21T07:48:40;6.03;;;5.43;;
75516;SDS011;64097;52.548;13.406;2023-11-21T07:51:07;6.57;;;5.97;;
75516;SDS011;64097;52.548;13.406;2023-11-21T07:53:34;6.15;;;5.55;;
75516;SDS011;64097;52.548;13.406;2023-11-21T07:56:04;5.97;;;5.38;;
75516;SDS011;64097;52.548;13.406;2023-11-21T07:58:31;5.22;;;4.72;;
75516;SDS011;64097;52.548;13.406;2023-11-21T08:00:58;5.07;;;4.57;;
75516;SDS011;64097;52.548;13.406;2023-11-21T08:03:25;7.43;;;4.53;;
75516;SDS011;64097;52.548;13.406;2023-11-21T08:05:51;5.78;;;5.18;;
75516;SDS011;64097;52.548;13.406;2023-11-21T08:08:17;4.38;;;3.83;;
75516;SDS011;64097;52.548;13.406;2023-11-21T08:10:44;4.35;;;3.92;;
75516;SDS011;64097;52.548;13.406;2023-11-21T08:13:21;4.80;;;4.30;;
75516;SDS011;64097;52.548;13.406;2023-11-21T08:15:47;4.93;;;4.43;;
75516;SDS011;64097;52.548;13.406;2023-11-21T08:18:13;4.32;;;3.92;;
75516;SDS011;64097;52.548;13.406;2023-11-21T08:20:40;4.82;;;4.13;;
75516;SDS011;64097;52.548;13.406;2023-11-21T08:23:05;4.30;;;3.90;;
75516;SDS011;64097;52.548;13.406;2023-11-21T08:25:31;5.07;;;3.90;;
75516;SDS011;64097;52.548;13.406;2023-11-21T08:27:59;3.63;;;3.33;;
75516;SDS011;64097;52.548;13.406;2023-11-21T08:30:25;5.65;;;4.60;;
75516;SDS011;64097;52.548;13.406;2023-11-21T08:32:54;5.38;;;4.50;;
75516;SDS011;64097;52.548;13.406;2023-11-21T08:35:23;5.13;;;4.63;;
75516;SDS011;64097;52.548;13.406;2023-11-21T08:37:51;4.35;;;3.95;;
75516;SDS011;64097;52.548;13.406;2023-11-21T08:40:18;4.50;;;4.10;;
75516;SDS011;64097;52.548;13.406;2023-11-21T08:42:45;4.88;;;4.18;;
75516;SDS011;64097;52.548;13.406;2023-11-21T08:45:11;4.45;;;3.97;;
75516;SDS011;64097;52.548;13.406;2023-11-21T08:47:38;6.10;;;4.75;;
75516;SDS011;64097;52.548;13.406;2023-11-21T08:50:05;4.90;;;4.35;;
75516;SDS011;64097;52.548;13.406;2023-11-21T08:52:32;5.53;;;4.35;;
75516;SDS011;64097;52.548;13.406;2023-11-21T08:54:59;7.40;;;5.30;;
75516;SDS011;64097;52.548;13.406;2023-11-21T08:57:28;7.30;;;5.40;;
75516;SDS011;64097;52.548;13.406;2023-11-21T08:59:54;6.82;;;4.90;;
75516;SDS011;64097;52.548;13.406;2023-11-21T09:02:25;5.75;;;4.50;;
75516;SDS011;64097;52.548;13.406;2023-11-21T09:04:52;8.18;;;5.57;;
75516;SDS011;64097;52.548;13.406;2023-11-21T09:07:20;8.98;;;6.30;;
75516;SDS011;64097;52.548;13.406;2023-11-21T09:09:46;10.80;;;6.78;;
75516;SDS011;64097;52.548;13.406;2023-11-21T09:12:12;9.27;;;6.10;;
75516;SDS011;64097;52.548;13.406;2023-11-21T09:14:38;8.65;;;5.95;;
75516;SDS011;64097;52.548;13.406;2023-11-21T09:17:04;8.27;;;5.63;;
75516;SDS011;64097;52.548;13.406;2023-11-21T09:19:36;8.18;;;5.57;;
75516;SDS011;64097;52.548;13.406;2023-11-21T09:22:02;8.32;;;5.63;;
75516;SDS011;64097;52.548;13.406;2023-11-21T09:24:33;9.15;;;5.55;;
75516;SDS011;64097;52.548;13.406;2023-11-21T09:26:59;9.57;;;5.68;;
75516;SDS011;64097;52.548;13.406;2023-11-21T09:29:27;12.30;;;7.30;;
75516;SDS011;64097;52.548;13.406;2023-11-21T09:31:54;12.85;;;7.10;;
75516;SDS011;64097;52.548;13.406;2023-11-21T09:34:20;11.98;;;7.43;;
75516;SDS011;64097;52.548;13.406;2023-11-21T09:36:46;11.93;;;7.43;;
75516;SDS011;64097;52.548;13.406;2023-11-21T09:39:12;10.77;;;5.85;;
75516;SDS011;64097;52.548;13.406;2023-11-21T09:41:52;11.05;;;6.63;;
75516;SDS011;64097;52.548;13.406;2023-11-21T09:44:32;9.90;;;5.78;;
75516;SDS011;64097;52.548;13.406;2023-11-21T09:47:02;10.68;;;5.38;;
75516;SDS011;64097;52.548;13.406;2023-11-21T09:49:28;8.38;;;5.63;;
75516;SDS011;64097;52.548;13.406;2023-11-21T09:51:59;8.63;;;5.35;;
75516;SDS011;64097;52.548;13.406;2023-11-21T09:54:28;6.88;;;4.65;;
75516;SDS011;64097;52.548;13.406;2023-11-21T09:56:57;5.65;;;4.05;;
75516;SDS011;64097;52.548;13.406;2023-11-21T09:59:24;8.20;;;5.43;;
75516;SDS011;64097;52.548;13.406;2023-11-21T10:01:55;7.18;;;4.57;;
75516;SDS011;64097;52.548;13.406;2023-11-21T10:04:23;6.32;;;4.68;;
75516;SDS011;64097;52.548;13.406;2023-11-21T10:06:49;8.50;;;4.75;;
75516;SDS011;64097;52.548;13.406;2023-11-21T10:09:16;6.35;;;4.50;;
75516;SDS011;64097;52.548;13.406;2023-11-21T10:11:45;5.35;;;3.67;;
75516;SDS011;64097;52.548;13.406;2023-11-21T10:14:12;5.07;;;3.70;;
75516;SDS011;64097;52.548;13.406;2023-11-21T10:16:39;5.50;;;4.03;;
75516;SDS011;64097;52.548;13.406;2023-11-21T10:19:09;6.55;;;4.40;;
75516;SDS011;64097;52.548;13.406;2023-11-21T10:21:35;5.28;;;3.88;;
75516;SDS011;64097;52.548;13.406;2023-11-21T10:24:02;5.63;;;3.30;;
75516;SDS011;64097;52.548;13.406;2023-11-21T10:26:28;4.78;;;3.60;;
75516;SDS011;64097;52.548;13.406;2023-11-21T10:29:00;4.40;;;3.50;;
75516;SDS011;64097;52.548;13.406;2023-11-21T10:31:30;5.03;;;3.45;;
75516;SDS011;64097;52.548;13.406;2023-11-21T10:34:15;4.05;;;3.22;;
75516;SDS011;64097;52.548;13.406;2023-11-21T10:36:43;4.75;;;3.47;;
75516;SDS011;64097;52.548;13.406;2023-11-21T10:39:13;3.00;;;2.70;;
75516;SDS011;64097;52.548;13.406;2023-11-21T10:41:46;4.32;;;2.85;;
75516;SDS011;64097;52.548;13.406;2023-11-21T10:44:15;3.05;;;2.70;;
75516;SDS011;64097;52.548;13.406;2023-11-21T10:46:53;2.80;;;2.50;;
75516;SDS011;64097;52.548;13.406;2023-11-21T10:49:25;3.10;;;2.47;;
75516;SDS011;64097;52.548;13.406;2023-11-21T10:51:52;2.95;;;2.60;;
75516;SDS011;64097;52.548;13.406;2023-11-21T10:54:28;3.95;;;2.92;;
75516;SDS011;64097;52.548;13.406;2023-11-21T10:56:57;4.25;;;2.90;;
75516;SDS011;64097;52.548;13.406;2023-11-21T10:59:29;3.40;;;3.00;;
75516;SDS011;64097;52.548;13.406;2023-11-21T11:01:57;3.00;;;2.80;;
75516;SDS011;64097;52.548;13.406;2023-11-21T11:04:27;3.40;;;3.10;;
75516;SDS011;64097;52.548;13.406;2023-11-21T11:07:01;2.95;;;2.50;;
75516;SDS011;64097;52.548;13.406;2023-11-21T11:09:31;2.60;;;2.40;;
75516;SDS011;64097;52.548;13.406;2023-11-21T11:12:01;3.30;;;3.00;;
75516;SDS011;64097;52.548;13.406;2023-11-21T11:14:29;2.40;;;2.20;;
75516;SDS011;64097;52.548;13.406;2023-11-21T11:16:55;2.75;;;2.55;;
75516;SDS011;64097;52.548;13.406;2023-11-21T11:19:21;3.00;;;2.70;;
75516;SDS011;64097;52.548;13.406;2023-11-21T11:38:45;3.42;;;2.53;;
75516;SDS011;64097;52.548;13.406;2023-11-21T11:41:11;3.10;;;2.80;;
75516;SDS011;64097;52.548;13.406;2023-11-21T11:43:37;2.33;;;2.13;;
75516;SDS011;64097;52.548;13.406;2023-11-21T11:46:10;2.50;;;2.30;;
75516;SDS011;64097;52.548;13.406;2023-11-21T11:48:38;4.15;;;2.95;;
75516;SDS011;64097;52.548;13.406;2023-11-21T11:51:10;3.58;;;2.63;;
75516;SDS011;64097;52.548;13.406;2023-11-21T11:53:40;2.28;;;2.08;;
75516;SDS011;64097;52.548;13.406;2023-11-21T11:58:44;2.47;;;2.28;;
75516;SDS011;64097;52.548;13.406;2023-11-21T12:01:12;2.28;;;2.08;;
75516;SDS011;64097;52.548;13.406;2023-11-21T12:03:38;3.00;;;2.60;;
75516;SDS011;64097;52.548;13.406;2023-11-21T12:06:04;2.00;;;1.90;;
75516;SDS011;64097;52.548;13.406;2023-11-21T12:08:32;3.35;;;2.30;;
75516;SDS011;64097;52.548;13.406;2023-11-21T12:10:58;3.10;;;2.80;;
75516;SDS011;64097;52.548;13.406;2023-11-21T12:13:23;2.83;;;2.60;;
75516;SDS011;64097;52.548;13.406;2023-11-21T12:15:49;3.45;;;2.50;;
75516;SDS011;64097;52.548;13.406;2023-11-21T12:18:15;2.35;;;2.15;;
75516;SDS011;64097;52.548;13.406;2023-11-21T12:20:41;2.38;;;2.17;;
75516;SDS011;64097;52.548;13.406;2023-11-21T12:23:07;2.72;;;2.53;;
75516;SDS011;64097;52.548;13.406;2023-11-21T12:25:39;2.85;;;2.50;;
75516;SDS011;64097;52.548;13.406;2023-11-21T12:28:06;2.95;;;2.70;;
75516;SDS011;64097;52.548;13.406;2023-11-21T12:30:33;2.75;;;2.55;;
75516;SDS011;64097;52.548;13.406;2023-11-21T12:33:01;2.92;;;2.58;;
75516;SDS011;64097;52.548;13.406;2023-11-21T12:35:31;2.50;;;2.30;;
75516;SDS011;64097;52.548;13.406;2023-11-21T12:38:00;2.42;;;2.22;;
75516;SDS011;64097;52.548;13.406;2023-11-21T12:40:27;2.78;;;2.45;;
75516;SDS011;64097;52.548;13.406;2023-11-21T12:42:57;2.72;;;2.53;;
75516;SDS011;64097;52.548;13.406;2023-11-21T12:45:25;3.20;;;2.90;;
75516;SDS011;64097;52.548;13.406;2023-11-21T12:47:58;3.95;;;3.17;;
75516;SDS011;64097;52.548;13.406;2023-11-21T12:50:28;3.35;;;3.05;;
75516;SDS011;64097;52.548;13.406;2023-11-21T12:53:00;3.95;;;2.92;;
75516;SDS011;64097;52.548;13.406;2023-11-21T12:55:34;3.53;;;3.22;;
75516;SDS011;64097;52.548;13.406;2023-11-21T12:58:06;4.10;;;3.00;;
75516;SDS011;64097;52.548;13.406;2023-11-21T13:00:42;3.55;;;3.25;;
75516;SDS011;64097;52.548;13.406;2023-11-21T13:03:11;4.10;;;3.45;;
75516;SDS011;64097;52.548;13.406;2023-11-21T13:05:41;3.35;;;3.05;;
75516;SDS011;64097;52.548;13.406;2023-11-21T13:08:11;3.88;;;3.50;;
75516;SDS011;64097;52.548;13.406;2023-11-21T13:10:38;4.35;;;3.83;;
75516;SDS011;64097;52.548;13.406;2023-11-21T13:15:47;4.35;;;3.80;;
75516;SDS011;64097;52.548;13.406;2023-11-21T13:18:18;4.03;;;3.63;;
75516;SDS011;64097;52.548;13.406;2023-11-21T13:20:46;4.40;;;4.00;;
75516;SDS011;64097;52.548;13.406;2023-11-21T13:23:13;5.22;;;3.90;;
75516;SDS011;64097;52.548;13.406;2023-11-21T13:25:41;4.70;;;3.70;;
75516;SDS011;64097;52.548;13.406;2023-11-21T13:28:07;4.93;;;4.30;;
75516;SDS011;64097;52.548;13.406;2023-11-21T13:30:34;5.88;;;4.65;;
75516;SDS011;64097;52.548;13.406;2023-11-21T13:33:03;4.93;;;4.18;;
75516;SDS011;64097;52.548;13.406;2023-11-21T13:35:35;4.50;;;4.10;;
75516;SDS011;64097;52.548;13.406;2023-11-21T13:38:12;4.20;;;3.80;;
75516;SDS011;64097;52.548;13.406;2023-11-21T13:40:40;5.57;;;4.70;;
75516;SDS011;64097;52.548;13.406;2023-11-21T13:43:11;5.72;;;4.93;;
75516;SDS011;64097;52.548;13.406;2023-11-21T13:45:38;5.35;;;4.80;;
75516;SDS011;64097;52.548;13.406;2023-11-21T13:48:05;5.32;;;4.80;;
75516;SDS011;64097;52.548;13.406;2023-11-21T13:50:41;5.20;;;4.53;;
75516;SDS011;64097;52.548;13.406;2023-11-21T13:53:24;5.80;;;5.20;;
75516;SDS011;64097;52.548;13.406;2023-11-21T13:55:50;6.05;;;5.03;;
75516;SDS011;64097;52.548;13.406;2023-11-21T13:58:19;6.38;;;5.63;;
